sensor_id;sensor_type;location;lat;lon;timestamp;temperature;humidity
63047;DHT22;62025;39.238;9.126;2023-02-22T00:00:59;13.60;77.30
63047;DHT22;62025;39.238;9.126;2023-02-22T00:03:32;13.50;77.60
63047;DHT22;62025;39.238;9.126;2023-02-22T00:06:00;13.60;77.70
63047;DHT22;62025;39.238;9.126;2023-02-22T00:08:31;13.50;77.50
63047;DHT22;62025;39.238;9.126;2023-02-22T00:11:01;13.50;77.70
63047;DHT22;62025;39.238;9.126;2023-02-22T00:13:36;13.50;77.70
63047;DHT22;62025;39.238;9.126;2023-02-22T00:16:02;13.60;77.50
63047;DHT22;62025;39.238;9.126;2023-02-22T00:18:29;13.50;77.40
63047;DHT22;62025;39.238;9.126;2023-02-22T00:20:56;13.50;77.40
63047;DHT22;62025;39.238;9.126;2023-02-22T00:23:27;13.50;77.50
63047;DHT22;62025;39.238;9.126;2023-02-22T00:25:56;13.50;77.50
63047;DHT22;62025;39.238;9.126;2023-02-22T00:28:23;13.50;77.40
63047;DHT22;62025;39.238;9.126;2023-02-22T00:30:50;13.50;77.50
63047;DHT22;62025;39.238;9.126;2023-02-22T00:33:19;13.50;77.50
63047;DHT22;62025;39.238;9.126;2023-02-22T00:35:45;13.40;77.60
63047;DHT22;62025;39.238;9.126;2023-02-22T00:38:15;13.40;78.00
63047;DHT22;62025;39.238;9.126;2023-02-22T00:40:42;13.40;78.10
63047;DHT22;62025;39.238;9.126;2023-02-22T00:43:09;13.40;77.90
63047;DHT22;62025;39.238;9.126;2023-02-22T00:45:36;13.40;77.70
63047;DHT22;62025;39.238;9.126;2023-02-22T00:48:04;13.40;77.30
63047;DHT22;62025;39.238;9.126;2023-02-22T00:50:31;13.40;77.10
63047;DHT22;62025;39.238;9.126;2023-02-22T00:52:59;13.40;77.00
63047;DHT22;62025;39.238;9.126;2023-02-22T00:55:29;13.30;77.10
63047;DHT22;62025;39.238;9.126;2023-02-22T00:57:57;13.30;77.10
63047;DHT22;62025;39.238;9.126;2023-02-22T01:00:33;13.30;77.20
63047;DHT22;62025;39.238;9.126;2023-02-22T01:03:05;13.30;77.20
63047;DHT22;62025;39.238;9.126;2023-02-22T01:05:34;13.30;77.20
63047;DHT22;62025;39.238;9.126;2023-02-22T01:08:01;13.40;77.30
63047;DHT22;62025;39.238;9.126;2023-02-22T01:10:29;13.30;77.50
63047;DHT22;62025;39.238;9.126;2023-02-22T01:12:58;13.30;77.70
63047;DHT22;62025;39.238;9.126;2023-02-22T01:15:27;13.30;77.80
63047;DHT22;62025;39.238;9.126;2023-02-22T01:17:56;13.30;78.50
63047;DHT22;62025;39.238;9.126;2023-02-22T01:20:25;13.30;78.30
63047;DHT22;62025;39.238;9.126;2023-02-22T01:22:53;13.30;78.00
63047;DHT22;62025;39.238;9.126;2023-02-22T01:25:24;13.30;77.80
63047;DHT22;62025;39.238;9.126;2023-02-22T01:27:55;13.30;77.70
63047;DHT22;62025;39.238;9.126;2023-02-22T01:30:27;13.30;77.30
63047;DHT22;62025;39.238;9.126;2023-02-22T01:32:56;13.30;77.10
63047;DHT22;62025;39.238;9.126;2023-02-22T01:35:25;13.30;77.10
63047;DHT22;62025;39.238;9.126;2023-02-22T01:37:57;13.30;77.20
63047;DHT22;62025;39.238;9.126;2023-02-22T01:42:57;13.20;76.70
63047;DHT22;62025;39.238;9.126;2023-02-22T01:48:12;13.20;76.80
63047;DHT22;62025;39.238;9.126;2023-02-22T01:50:51;13.20;76.60
63047;DHT22;62025;39.238;9.126;2023-02-22T01:53:30;13.20;76.40
63047;DHT22;62025;39.238;9.126;2023-02-22T01:56:00;13.10;76.30
63047;DHT22;62025;39.238;9.126;2023-02-22T01:58:29;13.10;76.10
63047;DHT22;62025;39.238;9.126;2023-02-22T02:00:58;13.10;75.90
63047;DHT22;62025;39.238;9.126;2023-02-22T02:03:28;13.10;75.60
63047;DHT22;62025;39.238;9.126;2023-02-22T02:05:59;13.00;75.30
63047;DHT22;62025;39.238;9.126;2023-02-22T02:08:37;13.00;75.40
63047;DHT22;62025;39.238;9.126;2023-02-22T02:11:12;13.00;75.50
63047;DHT22;62025;39.238;9.126;2023-02-22T02:13:38;12.90;76.00
63047;DHT22;62025;39.238;9.126;2023-02-22T02:16:04;13.00;76.40
63047;DHT22;62025;39.238;9.126;2023-02-22T02:18:30;12.90;76.60
63047;DHT22;62025;39.238;9.126;2023-02-22T02:27:23;12.80;76.90
63047;DHT22;62025;39.238;9.126;2023-02-22T02:33:15;12.80;77.30
63047;DHT22;62025;39.238;9.126;2023-02-22T02:38:58;12.80;77.80
63047;DHT22;62025;39.238;9.126;2023-02-22T02:41:49;12.80;78.30
63047;DHT22;62025;39.238;9.126;2023-02-22T02:44:25;12.80;78.80
63047;DHT22;62025;39.238;9.126;2023-02-22T02:47:00;12.70;79.00
63047;DHT22;62025;39.238;9.126;2023-02-22T02:52:08;12.80;79.30
63047;DHT22;62025;39.238;9.126;2023-02-22T02:54:37;12.70;79.60
63047;DHT22;62025;39.238;9.126;2023-02-22T02:57:05;12.70;79.90
63047;DHT22;62025;39.238;9.126;2023-02-22T02:59:34;12.70;79.80
63047;DHT22;62025;39.238;9.126;2023-02-22T03:11:12;12.80;79.50
63047;DHT22;62025;39.238;9.126;2023-02-22T03:16:51;12.80;80.00
63047;DHT22;62025;39.238;9.126;2023-02-22T03:21:56;12.80;79.60
63047;DHT22;62025;39.238;9.126;2023-02-22T03:24:38;12.80;79.50
63047;DHT22;62025;39.238;9.126;2023-02-22T03:27:11;12.80;79.60
63047;DHT22;62025;39.238;9.126;2023-02-22T03:29:48;12.80;79.70
63047;DHT22;62025;39.238;9.126;2023-02-22T03:32:21;12.80;79.60
63047;DHT22;62025;39.238;9.126;2023-02-22T03:34:55;12.80;79.60
63047;DHT22;62025;39.238;9.126;2023-02-22T03:37:32;12.80;79.60
63047;DHT22;62025;39.238;9.126;2023-02-22T03:40:02;12.80;79.50
63047;DHT22;62025;39.238;9.126;2023-02-22T03:42:58;12.80;79.50
63047;DHT22;62025;39.238;9.126;2023-02-22T03:45:28;12.80;79.70
63047;DHT22;62025;39.238;9.126;2023-02-22T03:50:44;12.80;80.40
63047;DHT22;62025;39.238;9.126;2023-02-22T03:53:10;12.80;80.50
63047;DHT22;62025;39.238;9.126;2023-02-22T03:55:39;12.80;80.60
63047;DHT22;62025;39.238;9.126;2023-02-22T03:58:10;12.80;80.70
63047;DHT22;62025;39.238;9.126;2023-02-22T04:00:37;12.80;80.70
63047;DHT22;62025;39.238;9.126;2023-02-22T04:03:04;12.80;80.70
63047;DHT22;62025;39.238;9.126;2023-02-22T04:05:30;12.70;80.80
63047;DHT22;62025;39.238;9.126;2023-02-22T04:07:57;12.70;80.90
63047;DHT22;62025;39.238;9.126;2023-02-22T04:10:25;12.70;80.90
63047;DHT22;62025;39.238;9.126;2023-02-22T04:12:51;12.70;80.80
63047;DHT22;62025;39.238;9.126;2023-02-22T04:15:21;12.70;80.80
63047;DHT22;62025;39.238;9.126;2023-02-22T04:17:50;12.70;80.80
63047;DHT22;62025;39.238;9.126;2023-02-22T04:20:20;12.70;80.60
63047;DHT22;62025;39.238;9.126;2023-02-22T04:23:05;12.70;80.50
63047;DHT22;62025;39.238;9.126;2023-02-22T04:25:31;12.60;80.50
63047;DHT22;62025;39.238;9.126;2023-02-22T04:28:11;12.60;80.50
63047;DHT22;62025;39.238;9.126;2023-02-22T04:30:43;12.60;80.40
63047;DHT22;62025;39.238;9.126;2023-02-22T04:33:12;12.60;80.50
63047;DHT22;62025;39.238;9.126;2023-02-22T04:35:39;12.50;80.50
63047;DHT22;62025;39.238;9.126;2023-02-22T04:38:05;12.50;80.60
63047;DHT22;62025;39.238;9.126;2023-02-22T04:40:33;12.50;80.60
63047;DHT22;62025;39.238;9.126;2023-02-22T04:43:00;12.50;80.50
63047;DHT22;62025;39.238;9.126;2023-02-22T04:45:26;12.50;80.40
63047;DHT22;62025;39.238;9.126;2023-02-22T04:47:53;12.50;80.10
63047;DHT22;62025;39.238;9.126;2023-02-22T04:50:19;12.50;79.90
63047;DHT22;62025;39.238;9.126;2023-02-22T04:52:45;12.50;79.60
63047;DHT22;62025;39.238;9.126;2023-02-22T04:55:12;12.40;79.40
63047;DHT22;62025;39.238;9.126;2023-02-22T04:57:38;12.40;79.10
63047;DHT22;62025;39.238;9.126;2023-02-22T05:00:05;12.40;78.80
63047;DHT22;62025;39.238;9.126;2023-02-22T05:02:34;12.30;78.50
63047;DHT22;62025;39.238;9.126;2023-02-22T05:04:59;12.30;78.30
63047;DHT22;62025;39.238;9.126;2023-02-22T05:07:25;12.30;78.20
63047;DHT22;62025;39.238;9.126;2023-02-22T05:09:51;12.20;78.00
63047;DHT22;62025;39.238;9.126;2023-02-22T05:12:17;12.20;78.00
63047;DHT22;62025;39.238;9.126;2023-02-22T05:14:43;12.20;77.80
63047;DHT22;62025;39.238;9.126;2023-02-22T05:17:09;12.20;77.70
63047;DHT22;62025;39.238;9.126;2023-02-22T05:19:35;12.20;77.50
63047;DHT22;62025;39.238;9.126;2023-02-22T05:22:01;12.10;77.40
63047;DHT22;62025;39.238;9.126;2023-02-22T05:24:28;12.00;77.40
63047;DHT22;62025;39.238;9.126;2023-02-22T05:26:54;12.10;77.40
63047;DHT22;62025;39.238;9.126;2023-02-22T05:29:20;12.10;77.40
63047;DHT22;62025;39.238;9.126;2023-02-22T05:31:46;12.10;77.30
63047;DHT22;62025;39.238;9.126;2023-02-22T05:34:12;12.10;77.20
63047;DHT22;62025;39.238;9.126;2023-02-22T05:36:38;12.00;77.30
63047;DHT22;62025;39.238;9.126;2023-02-22T05:39:04;12.00;77.30
63047;DHT22;62025;39.238;9.126;2023-02-22T05:41:30;12.00;77.40
63047;DHT22;62025;39.238;9.126;2023-02-22T05:43:56;12.00;77.30
63047;DHT22;62025;39.238;9.126;2023-02-22T05:46:22;12.00;77.50
63047;DHT22;62025;39.238;9.126;2023-02-22T05:48:48;12.00;77.50
63047;DHT22;62025;39.238;9.126;2023-02-22T05:51:14;12.00;77.50
63047;DHT22;62025;39.238;9.126;2023-02-22T05:53:40;11.90;78.40
63047;DHT22;62025;39.238;9.126;2023-02-22T05:56:07;11.80;79.10
63047;DHT22;62025;39.238;9.126;2023-02-22T05:58:33;11.80;79.30
63047;DHT22;62025;39.238;9.126;2023-02-22T06:00:59;11.80;79.50
63047;DHT22;62025;39.238;9.126;2023-02-22T06:03:25;11.80;79.60
63047;DHT22;62025;39.238;9.126;2023-02-22T06:05:51;11.80;79.50
63047;DHT22;62025;39.238;9.126;2023-02-22T06:08:17;11.90;79.40
63047;DHT22;62025;39.238;9.126;2023-02-22T06:10:43;11.90;79.60
63047;DHT22;62025;39.238;9.126;2023-02-22T06:13:09;11.90;79.70
63047;DHT22;62025;39.238;9.126;2023-02-22T06:15:35;12.00;79.50
63047;DHT22;62025;39.238;9.126;2023-02-22T06:18:01;12.00;79.00
63047;DHT22;62025;39.238;9.126;2023-02-22T06:20:28;12.00;78.60
63047;DHT22;62025;39.238;9.126;2023-02-22T06:22:56;12.00;78.20
63047;DHT22;62025;39.238;9.126;2023-02-22T06:25:26;12.00;77.90
63047;DHT22;62025;39.238;9.126;2023-02-22T06:27:56;12.00;77.80
63047;DHT22;62025;39.238;9.126;2023-02-22T06:30:24;12.00;77.60
63047;DHT22;62025;39.238;9.126;2023-02-22T06:32:50;12.00;77.50
63047;DHT22;62025;39.238;9.126;2023-02-22T06:35:16;11.90;77.50
63047;DHT22;62025;39.238;9.126;2023-02-22T06:37:42;12.00;77.60
63047;DHT22;62025;39.238;9.126;2023-02-22T06:40:10;11.90;77.60
63047;DHT22;62025;39.238;9.126;2023-02-22T06:42:37;11.90;77.60
63047;DHT22;62025;39.238;9.126;2023-02-22T06:45:04;11.90;77.60
63047;DHT22;62025;39.238;9.126;2023-02-22T06:47:30;11.90;77.80
63047;DHT22;62025;39.238;9.126;2023-02-22T06:49:57;11.90;78.20
63047;DHT22;62025;39.238;9.126;2023-02-22T06:52:25;11.90;78.40
63047;DHT22;62025;39.238;9.126;2023-02-22T06:54:51;11.90;78.60
63047;DHT22;62025;39.238;9.126;2023-02-22T06:57:18;11.90;79.00
63047;DHT22;62025;39.238;9.126;2023-02-22T06:59:44;11.90;79.20
63047;DHT22;62025;39.238;9.126;2023-02-22T07:02:13;11.90;79.40
63047;DHT22;62025;39.238;9.126;2023-02-22T07:04:39;11.90;79.50
63047;DHT22;62025;39.238;9.126;2023-02-22T07:07:05;12.00;79.60
63047;DHT22;62025;39.238;9.126;2023-02-22T07:09:31;12.00;79.60
63047;DHT22;62025;39.238;9.126;2023-02-22T07:11:57;12.00;79.70
63047;DHT22;62025;39.238;9.126;2023-02-22T07:14:23;11.90;79.90
63047;DHT22;62025;39.238;9.126;2023-02-22T07:16:49;12.00;80.00
63047;DHT22;62025;39.238;9.126;2023-02-22T07:19:15;12.00;80.10
63047;DHT22;62025;39.238;9.126;2023-02-22T07:21:41;12.00;80.10
63047;DHT22;62025;39.238;9.126;2023-02-22T07:24:07;12.10;80.00
63047;DHT22;62025;39.238;9.126;2023-02-22T07:26:40;12.10;80.10
63047;DHT22;62025;39.238;9.126;2023-02-22T07:29:07;12.10;80.30
63047;DHT22;62025;39.238;9.126;2023-02-22T07:31:38;12.10;80.30
63047;DHT22;62025;39.238;9.126;2023-02-22T07:34:04;12.20;80.50
63047;DHT22;62025;39.238;9.126;2023-02-22T07:36:31;12.20;80.50
63047;DHT22;62025;39.238;9.126;2023-02-22T07:38:57;12.00;81.00
63047;DHT22;62025;39.238;9.126;2023-02-22T07:41:23;12.00;81.30
63047;DHT22;62025;39.238;9.126;2023-02-22T07:43:49;12.10;81.40
63047;DHT22;62025;39.238;9.126;2023-02-22T07:46:16;12.10;81.20
63047;DHT22;62025;39.238;9.126;2023-02-22T07:48:42;12.00;81.60
63047;DHT22;62025;39.238;9.126;2023-02-22T07:51:08;11.90;82.20
63047;DHT22;62025;39.238;9.126;2023-02-22T07:53:34;12.00;82.30
63047;DHT22;62025;39.238;9.126;2023-02-22T07:56:02;12.10;82.10
63047;DHT22;62025;39.238;9.126;2023-02-22T07:58:30;12.10;82.30
63047;DHT22;62025;39.238;9.126;2023-02-22T08:00:58;12.10;82.30
63047;DHT22;62025;39.238;9.126;2023-02-22T08:03:28;12.10;82.40
63047;DHT22;62025;39.238;9.126;2023-02-22T08:05:56;12.20;82.40
63047;DHT22;62025;39.238;9.126;2023-02-22T08:08:25;12.20;82.50
63047;DHT22;62025;39.238;9.126;2023-02-22T08:10:51;12.10;82.90
63047;DHT22;62025;39.238;9.126;2023-02-22T08:13:19;12.00;83.40
63047;DHT22;62025;39.238;9.126;2023-02-22T08:15:46;12.10;83.40
63047;DHT22;62025;39.238;9.126;2023-02-22T08:18:17;12.20;83.20
63047;DHT22;62025;39.238;9.126;2023-02-22T08:20:45;12.20;83.40
63047;DHT22;62025;39.238;9.126;2023-02-22T08:23:13;12.20;84.00
63047;DHT22;62025;39.238;9.126;2023-02-22T08:25:41;12.30;83.80
63047;DHT22;62025;39.238;9.126;2023-02-22T08:28:10;12.30;83.30
63047;DHT22;62025;39.238;9.126;2023-02-22T08:30:41;12.40;83.80
63047;DHT22;62025;39.238;9.126;2023-02-22T08:33:12;12.50;83.60
63047;DHT22;62025;39.238;9.126;2023-02-22T08:35:41;12.50;83.30
63047;DHT22;62025;39.238;9.126;2023-02-22T08:38:17;12.50;83.20
63047;DHT22;62025;39.238;9.126;2023-02-22T08:40:48;12.60;83.50
63047;DHT22;62025;39.238;9.126;2023-02-22T08:43:15;12.60;83.30
63047;DHT22;62025;39.238;9.126;2023-02-22T08:45:42;12.60;83.30
63047;DHT22;62025;39.238;9.126;2023-02-22T08:48:09;12.60;83.40
63047;DHT22;62025;39.238;9.126;2023-02-22T08:50:35;12.70;83.10
63047;DHT22;62025;39.238;9.126;2023-02-22T08:53:04;12.70;83.00
63047;DHT22;62025;39.238;9.126;2023-02-22T08:55:33;12.80;82.80
63047;DHT22;62025;39.238;9.126;2023-02-22T08:58:02;12.80;82.60
63047;DHT22;62025;39.238;9.126;2023-02-22T09:00:31;12.90;82.40
63047;DHT22;62025;39.238;9.126;2023-02-22T09:03:01;13.20;82.00
63047;DHT22;62025;39.238;9.126;2023-02-22T09:05:28;13.70;81.00
63047;DHT22;62025;39.238;9.126;2023-02-22T09:07:55;13.90;79.60
63047;DHT22;62025;39.238;9.126;2023-02-22T09:10:24;14.20;78.60
63047;DHT22;62025;39.238;9.126;2023-02-22T09:12:52;14.70;77.50
63047;DHT22;62025;39.238;9.126;2023-02-22T09:15:23;15.10;75.90
63047;DHT22;62025;39.238;9.126;2023-02-22T09:17:50;15.30;75.00
63047;DHT22;62025;39.238;9.126;2023-02-22T09:20:18;15.40;74.40
63047;DHT22;62025;39.238;9.126;2023-02-22T09:22:46;15.60;74.00
63047;DHT22;62025;39.238;9.126;2023-02-22T09:25:14;15.70;73.40
63047;DHT22;62025;39.238;9.126;2023-02-22T09:27:41;15.80;72.90
63047;DHT22;62025;39.238;9.126;2023-02-22T09:30:14;16.10;72.00
63047;DHT22;62025;39.238;9.126;2023-02-22T09:32:42;16.30;71.20
63047;DHT22;62025;39.238;9.126;2023-02-22T09:35:08;16.30;70.70
63047;DHT22;62025;39.238;9.126;2023-02-22T09:37:34;15.90;70.40
63047;DHT22;62025;39.238;9.126;2023-02-22T09:40:00;15.40;72.10
63047;DHT22;62025;39.238;9.126;2023-02-22T09:42:32;15.30;73.90
63047;DHT22;62025;39.238;9.126;2023-02-22T09:47:52;15.00;74.40
63047;DHT22;62025;39.238;9.126;2023-02-22T09:50:28;14.80;75.10
63047;DHT22;62025;39.238;9.126;2023-02-22T09:53:00;14.90;75.50
63047;DHT22;62025;39.238;9.126;2023-02-22T09:56:11;14.90;75.70
63047;DHT22;62025;39.238;9.126;2023-02-22T09:58:42;14.60;76.70
63047;DHT22;62025;39.238;9.126;2023-02-22T10:06:38;14.80;75.90
63047;DHT22;62025;39.238;9.126;2023-02-22T10:09:09;14.90;75.50
63047;DHT22;62025;39.238;9.126;2023-02-22T10:26:15;16.30;70.60
63047;DHT22;62025;39.238;9.126;2023-02-22T10:29:04;16.30;69.80
63047;DHT22;62025;39.238;9.126;2023-02-22T10:31:40;16.10;70.00
63047;DHT22;62025;39.238;9.126;2023-02-22T10:34:19;16.30;70.60
63047;DHT22;62025;39.238;9.126;2023-02-22T10:36:55;16.60;70.00
63047;DHT22;62025;39.238;9.126;2023-02-22T10:39:34;16.50;70.00
63047;DHT22;62025;39.238;9.126;2023-02-22T10:42:04;16.60;69.50
63047;DHT22;62025;39.238;9.126;2023-02-22T10:44:36;16.40;69.90
63047;DHT22;62025;39.238;9.126;2023-02-22T10:47:06;16.60;69.50
63047;DHT22;62025;39.238;9.126;2023-02-22T10:49:36;16.80;69.30
63047;DHT22;62025;39.238;9.126;2023-02-22T10:52:23;16.80;69.10
63047;DHT22;62025;39.238;9.126;2023-02-22T10:54:56;16.60;69.30
63047;DHT22;62025;39.238;9.126;2023-02-22T10:57:35;16.60;69.60
63047;DHT22;62025;39.238;9.126;2023-02-22T11:00:38;16.60;68.70
63047;DHT22;62025;39.238;9.126;2023-02-22T11:03:19;16.50;68.30
63047;DHT22;62025;39.238;9.126;2023-02-22T11:05:46;16.30;68.50
63047;DHT22;62025;39.238;9.126;2023-02-22T11:08:29;16.50;68.00
63047;DHT22;62025;39.238;9.126;2023-02-22T11:11:00;16.40;67.70
63047;DHT22;62025;39.238;9.126;2023-02-22T11:13:33;16.20;67.50
63047;DHT22;62025;39.238;9.126;2023-02-22T11:19:16;16.20;67.00
63047;DHT22;62025;39.238;9.126;2023-02-22T11:21:50;16.00;67.10
63047;DHT22;62025;39.238;9.126;2023-02-22T11:24:20;16.10;67.80
63047;DHT22;62025;39.238;9.126;2023-02-22T11:26:58;15.90;68.30
63047;DHT22;62025;39.238;9.126;2023-02-22T11:29:36;15.80;68.50
63047;DHT22;62025;39.238;9.126;2023-02-22T11:32:15;15.60;69.30
63047;DHT22;62025;39.238;9.126;2023-02-22T11:34:46;15.90;68.80
63047;DHT22;62025;39.238;9.126;2023-02-22T11:37:34;16.00;68.50
63047;DHT22;62025;39.238;9.126;2023-02-22T11:40:09;16.00;68.00
63047;DHT22;62025;39.238;9.126;2023-02-22T11:42:42;16.10;68.40
63047;DHT22;62025;39.238;9.126;2023-02-22T11:45:17;16.20;68.70
63047;DHT22;62025;39.238;9.126;2023-02-22T11:47:57;16.20;69.20
63047;DHT22;62025;39.238;9.126;2023-02-22T11:58:55;15.80;70.20
63047;DHT22;62025;39.238;9.126;2023-02-22T12:01:37;15.70;71.20
63047;DHT22;62025;39.238;9.126;2023-02-22T12:07:39;15.30;72.60
63047;DHT22;62025;39.238;9.126;2023-02-22T12:13:08;15.50;72.10
63047;DHT22;62025;39.238;9.126;2023-02-22T12:16:05;15.60;71.90
63047;DHT22;62025;39.238;9.126;2023-02-22T12:22:00;15.60;72.10
63047;DHT22;62025;39.238;9.126;2023-02-22T12:24:36;15.50;72.00
63047;DHT22;62025;39.238;9.126;2023-02-22T12:27:13;15.60;72.20
63047;DHT22;62025;39.238;9.126;2023-02-22T12:29:51;15.80;71.80
63047;DHT22;62025;39.238;9.126;2023-02-22T12:32:45;15.80;71.60
63047;DHT22;62025;39.238;9.126;2023-02-22T12:35:43;15.80;72.20
63047;DHT22;62025;39.238;9.126;2023-02-22T12:46:37;15.70;71.90
63047;DHT22;62025;39.238;9.126;2023-02-22T13:14:57;15.60;71.20
63047;DHT22;62025;39.238;9.126;2023-02-22T13:20:32;15.70;70.90
63047;DHT22;62025;39.238;9.126;2023-02-22T13:39:44;15.60;70.30
63047;DHT22;62025;39.238;9.126;2023-02-22T13:42:28;15.60;70.00
63047;DHT22;62025;39.238;9.126;2023-02-22T13:50:57;15.50;70.20
63047;DHT22;62025;39.238;9.126;2023-02-22T13:53:54;15.50;70.30
63047;DHT22;62025;39.238;9.126;2023-02-22T13:56:24;15.50;70.70
63047;DHT22;62025;39.238;9.126;2023-02-22T13:58:54;15.40;71.00
63047;DHT22;62025;39.238;9.126;2023-02-22T14:01:36;15.40;71.30
63047;DHT22;62025;39.238;9.126;2023-02-22T14:09:47;15.30;71.50
63047;DHT22;62025;39.238;9.126;2023-02-22T14:17:47;15.30;71.50
63047;DHT22;62025;39.238;9.126;2023-02-22T14:22:43;15.30;71.20
63047;DHT22;62025;39.238;9.126;2023-02-22T14:25:41;15.30;71.80
63047;DHT22;62025;39.238;9.126;2023-02-22T14:31:31;15.40;71.60
63047;DHT22;62025;39.238;9.126;2023-02-22T14:36:58;15.60;71.40
63047;DHT22;62025;39.238;9.126;2023-02-22T14:39:30;15.50;71.30
63047;DHT22;62025;39.238;9.126;2023-02-22T14:42:34;15.60;71.50
63047;DHT22;62025;39.238;9.126;2023-02-22T14:48:03;15.30;72.50
63047;DHT22;62025;39.238;9.126;2023-02-22T14:57:03;15.10;73.00
63047;DHT22;62025;39.238;9.126;2023-02-22T15:02:49;15.30;73.00
63047;DHT22;62025;39.238;9.126;2023-02-22T15:05:18;15.20;73.20
63047;DHT22;62025;39.238;9.126;2023-02-22T15:07:54;15.30;73.10
63047;DHT22;62025;39.238;9.126;2023-02-22T15:10:46;15.40;73.10
63047;DHT22;62025;39.238;9.126;2023-02-22T15:13:25;15.30;73.00
63047;DHT22;62025;39.238;9.126;2023-02-22T15:15:59;15.30;73.50
63047;DHT22;62025;39.238;9.126;2023-02-22T15:21:05;15.30;73.70
63047;DHT22;62025;39.238;9.126;2023-02-22T15:23:42;15.20;74.00
63047;DHT22;62025;39.238;9.126;2023-02-22T15:26:36;15.30;73.50
63047;DHT22;62025;39.238;9.126;2023-02-22T15:29:19;15.20;73.50
63047;DHT22;62025;39.238;9.126;2023-02-22T15:31:47;15.20;73.80
63047;DHT22;62025;39.238;9.126;2023-02-22T15:36:41;15.00;73.60
63047;DHT22;62025;39.238;9.126;2023-02-22T15:42:09;15.10;73.50
63047;DHT22;62025;39.238;9.126;2023-02-22T15:44:42;15.10;73.70
63047;DHT22;62025;39.238;9.126;2023-02-22T15:47:26;15.10;73.20
63047;DHT22;62025;39.238;9.126;2023-02-22T15:53:36;15.00;74.20
63047;DHT22;62025;39.238;9.126;2023-02-22T15:56:10;14.90;74.50
63047;DHT22;62025;39.238;9.126;2023-02-22T15:58:38;15.00;74.40
63047;DHT22;62025;39.238;9.126;2023-02-22T16:01:08;15.00;74.60
63047;DHT22;62025;39.238;9.126;2023-02-22T16:03:55;15.00;74.90
63047;DHT22;62025;39.238;9.126;2023-02-22T16:09:14;15.00;75.00
63047;DHT22;62025;39.238;9.126;2023-02-22T16:11:44;14.90;75.40
63047;DHT22;62025;39.238;9.126;2023-02-22T16:22:47;14.80;76.00
63047;DHT22;62025;39.238;9.126;2023-02-22T16:32:48;14.80;75.80
63047;DHT22;62025;39.238;9.126;2023-02-22T16:35:15;14.90;75.80
63047;DHT22;62025;39.238;9.126;2023-02-22T16:37:49;14.80;76.30
63047;DHT22;62025;39.238;9.126;2023-02-22T16:42:49;14.90;76.10
63047;DHT22;62025;39.238;9.126;2023-02-22T16:45:17;14.80;76.00
63047;DHT22;62025;39.238;9.126;2023-02-22T16:47:44;14.80;76.00
63047;DHT22;62025;39.238;9.126;2023-02-22T16:50:11;14.80;76.40
63047;DHT22;62025;39.238;9.126;2023-02-22T16:52:39;14.80;76.50
63047;DHT22;62025;39.238;9.126;2023-02-22T16:55:09;14.70;76.50
63047;DHT22;62025;39.238;9.126;2023-02-22T16:57:38;14.80;76.40
63047;DHT22;62025;39.238;9.126;2023-02-22T17:00:06;14.80;76.60
63047;DHT22;62025;39.238;9.126;2023-02-22T17:02:38;14.80;76.50
63047;DHT22;62025;39.238;9.126;2023-02-22T17:05:05;14.80;76.50
63047;DHT22;62025;39.238;9.126;2023-02-22T17:07:32;14.70;76.80
63047;DHT22;62025;39.238;9.126;2023-02-22T17:09:58;14.60;76.70
63047;DHT22;62025;39.238;9.126;2023-02-22T17:12:26;14.70;76.70
63047;DHT22;62025;39.238;9.126;2023-02-22T17:14:52;14.70;76.60
63047;DHT22;62025;39.238;9.126;2023-02-22T17:17:18;14.60;76.90
63047;DHT22;62025;39.238;9.126;2023-02-22T17:19:44;14.60;77.00
63047;DHT22;62025;39.238;9.126;2023-02-22T17:22:17;14.60;77.20
63047;DHT22;62025;39.238;9.126;2023-02-22T17:24:45;14.50;77.40
63047;DHT22;62025;39.238;9.126;2023-02-22T17:27:11;14.50;77.50
63047;DHT22;62025;39.238;9.126;2023-02-22T17:29:38;14.40;77.60
63047;DHT22;62025;39.238;9.126;2023-02-22T17:32:06;14.40;77.60
63047;DHT22;62025;39.238;9.126;2023-02-22T17:34:32;14.50;77.40
63047;DHT22;62025;39.238;9.126;2023-02-22T17:36:58;14.50;77.50
63047;DHT22;62025;39.238;9.126;2023-02-22T17:39:24;14.40;77.80
63047;DHT22;62025;39.238;9.126;2023-02-22T17:41:52;14.50;77.70
63047;DHT22;62025;39.238;9.126;2023-02-22T17:44:24;14.50;77.40
63047;DHT22;62025;39.238;9.126;2023-02-22T17:46:51;14.40;77.50
63047;DHT22;62025;39.238;9.126;2023-02-22T17:49:18;14.60;77.30
63047;DHT22;62025;39.238;9.126;2023-02-22T17:51:44;14.60;77.10
63047;DHT22;62025;39.238;9.126;2023-02-22T17:54:15;14.60;77.10
63047;DHT22;62025;39.238;9.126;2023-02-22T17:56:42;14.50;77.20
63047;DHT22;62025;39.238;9.126;2023-02-22T17:59:08;14.60;77.20
63047;DHT22;62025;39.238;9.126;2023-02-22T18:01:34;14.60;77.10
63047;DHT22;62025;39.238;9.126;2023-02-22T18:04:02;14.60;76.90
63047;DHT22;62025;39.238;9.126;2023-02-22T18:06:29;14.60;77.00
63047;DHT22;62025;39.238;9.126;2023-02-22T18:08:57;14.50;77.40
63047;DHT22;62025;39.238;9.126;2023-02-22T18:11:26;14.50;77.20
63047;DHT22;62025;39.238;9.126;2023-02-22T18:13:54;14.60;77.20
63047;DHT22;62025;39.238;9.126;2023-02-22T18:16:21;14.50;77.30
63047;DHT22;62025;39.238;9.126;2023-02-22T18:18:50;14.50;77.20
63047;DHT22;62025;39.238;9.126;2023-02-22T18:21:16;14.30;78.10
63047;DHT22;62025;39.238;9.126;2023-02-22T18:23:42;14.30;78.10
63047;DHT22;62025;39.238;9.126;2023-02-22T18:26:17;14.40;77.70
63047;DHT22;62025;39.238;9.126;2023-02-22T18:28:44;14.40;77.90
63047;DHT22;62025;39.238;9.126;2023-02-22T18:31:14;14.30;78.00
63047;DHT22;62025;39.238;9.126;2023-02-22T18:33:44;14.30;78.10
63047;DHT22;62025;39.238;9.126;2023-02-22T18:36:12;14.30;78.10
63047;DHT22;62025;39.238;9.126;2023-02-22T18:38:39;14.40;77.80
63047;DHT22;62025;39.238;9.126;2023-02-22T18:41:09;14.30;77.80
63047;DHT22;62025;39.238;9.126;2023-02-22T18:43:37;14.50;77.50
63047;DHT22;62025;39.238;9.126;2023-02-22T18:46:10;14.60;77.30
63047;DHT22;62025;39.238;9.126;2023-02-22T18:48:39;14.60;76.90
63047;DHT22;62025;39.238;9.126;2023-02-22T18:51:07;14.70;76.70
63047;DHT22;62025;39.238;9.126;2023-02-22T18:53:35;14.70;76.60
63047;DHT22;62025;39.238;9.126;2023-02-22T18:56:13;14.70;76.80
63047;DHT22;62025;39.238;9.126;2023-02-22T18:58:41;14.70;76.80
63047;DHT22;62025;39.238;9.126;2023-02-22T19:01:15;14.60;77.10
63047;DHT22;62025;39.238;9.126;2023-02-22T19:03:45;14.60;77.20
63047;DHT22;62025;39.238;9.126;2023-02-22T19:06:15;14.40;77.70
63047;DHT22;62025;39.238;9.126;2023-02-22T19:08:42;14.40;77.70
63047;DHT22;62025;39.238;9.126;2023-02-22T19:11:12;14.50;77.80
63047;DHT22;62025;39.238;9.126;2023-02-22T19:13:43;14.40;77.90
63047;DHT22;62025;39.238;9.126;2023-02-22T19:16:14;14.30;78.10
63047;DHT22;62025;39.238;9.126;2023-02-22T19:18:44;14.50;77.90